Terminal Aerodrome Forecast
Issued by NWS

Home | Current Version | Previous Version | Text Only | Print | Product List | Glossary On
Versions: 1 2 3 4 5 6 7 8 9 10 11 12 13 14 15 16 17
472
FTUS42 KMLB 231720
TAFSFB
TAF
KSFB 231720Z 2318/2418 07006KT P6SM VCSH SCT035 SCT050 SCT250
      TEMPO 2319/2321 3SM TSRA BKN030CB
     FM240200 15003KT P6SM FEW020 BKN250
     FM241400 14006KT P6SM SCT030 SCT080 BKN250=

USA.gov is the U.S. government's official web portal to all federal, state and local government web resources and services.